sensor_id;sensor_type;location;lat;lon;timestamp;P1;durP1;ratioP1;P2;durP2;ratioP2
76863;SDS011;65834;52.364;9.754;2023-12-07T00:02:15;21.13;;;11.30;;
76863;SDS011;65834;52.364;9.754;2023-12-07T00:04:45;19.73;;;10.80;;
76863;SDS011;65834;52.364;9.754;2023-12-07T00:07:17;17.77;;;9.63;;
76863;SDS011;65834;52.364;9.754;2023-12-07T00:09:47;20.75;;;9.73;;
76863;SDS011;65834;52.364;9.754;2023-12-07T00:12:16;19.80;;;10.90;;
76863;SDS011;65834;52.364;9.754;2023-12-07T00:14:46;20.27;;;10.13;;
76863;SDS011;65834;52.364;9.754;2023-12-07T00:17:15;20.80;;;9.73;;
76863;SDS011;65834;52.364;9.754;2023-12-07T00:19:45;19.97;;;11.20;;
76863;SDS011;65834;52.364;9.754;2023-12-07T00:22:17;19.97;;;10.97;;
76863;SDS011;65834;52.364;9.754;2023-12-07T00:24:48;18.80;;;10.03;;
76863;SDS011;65834;52.364;9.754;2023-12-07T00:27:17;19.43;;;10.00;;
76863;SDS011;65834;52.364;9.754;2023-12-07T00:29:47;21.20;;;10.87;;
76863;SDS011;65834;52.364;9.754;2023-12-07T00:32:16;18.10;;;9.63;;
76863;SDS011;65834;52.364;9.754;2023-12-07T00:34:46;21.03;;;11.83;;
76863;SDS011;65834;52.364;9.754;2023-12-07T00:37:19;21.43;;;10.80;;
76863;SDS011;65834;52.364;9.754;2023-12-07T00:39:48;18.83;;;10.82;;
76863;SDS011;65834;52.364;9.754;2023-12-07T00:42:18;20.60;;;11.60;;
76863;SDS011;65834;52.364;9.754;2023-12-07T00:44:48;20.17;;;10.30;;
76863;SDS011;65834;52.364;9.754;2023-12-07T00:47:17;20.90;;;10.27;;
76863;SDS011;65834;52.364;9.754;2023-12-07T00:49:47;21.00;;;11.10;;
76863;SDS011;65834;52.364;9.754;2023-12-07T00:52:20;21.00;;;11.60;;
76863;SDS011;65834;52.364;9.754;2023-12-07T00:57:19;20.87;;;10.83;;
76863;SDS011;65834;52.364;9.754;2023-12-07T00:59:49;19.80;;;10.40;;
76863;SDS011;65834;52.364;9.754;2023-12-07T01:02:18;19.83;;;10.27;;
76863;SDS011;65834;52.364;9.754;2023-12-07T01:04:48;20.57;;;10.70;;
76863;SDS011;65834;52.364;9.754;2023-12-07T01:07:20;23.20;;;11.10;;
76863;SDS011;65834;52.364;9.754;2023-12-07T01:09:50;19.67;;;10.52;;
76863;SDS011;65834;52.364;9.754;2023-12-07T01:12:20;20.63;;;10.30;;
76863;SDS011;65834;52.364;9.754;2023-12-07T01:14:50;19.17;;;10.70;;
76863;SDS011;65834;52.364;9.754;2023-12-07T01:17:19;21.07;;;10.40;;
76863;SDS011;65834;52.364;9.754;2023-12-07T01:19:49;21.23;;;11.47;;
76863;SDS011;65834;52.364;9.754;2023-12-07T01:22:21;20.57;;;10.87;;
76863;SDS011;65834;52.364;9.754;2023-12-07T01:24:51;22.13;;;10.30;;
76863;SDS011;65834;52.364;9.754;2023-12-07T01:27:21;21.83;;;10.53;;
76863;SDS011;65834;52.364;9.754;2023-12-07T01:29:51;21.60;;;11.20;;
76863;SDS011;65834;52.364;9.754;2023-12-07T01:32:20;20.10;;;10.10;;
76863;SDS011;65834;52.364;9.754;2023-12-07T01:34:50;20.70;;;11.80;;
76863;SDS011;65834;52.364;9.754;2023-12-07T01:37:22;20.40;;;11.33;;
76863;SDS011;65834;52.364;9.754;2023-12-07T01:39:54;21.17;;;11.70;;
76863;SDS011;65834;52.364;9.754;2023-12-07T01:42:23;18.30;;;10.00;;
76863;SDS011;65834;52.364;9.754;2023-12-07T01:44:53;20.97;;;11.10;;
76863;SDS011;65834;52.364;9.754;2023-12-07T01:47:22;21.67;;;11.13;;
76863;SDS011;65834;52.364;9.754;2023-12-07T01:49:52;22.50;;;11.30;;
76863;SDS011;65834;52.364;9.754;2023-12-07T01:52:25;24.90;;;12.30;;
76863;SDS011;65834;52.364;9.754;2023-12-07T01:54:58;19.57;;;10.43;;
76863;SDS011;65834;52.364;9.754;2023-12-07T01:57:28;21.83;;;11.13;;
76863;SDS011;65834;52.364;9.754;2023-12-07T01:59:58;22.93;;;11.13;;
76863;SDS011;65834;52.364;9.754;2023-12-07T02:02:29;20.17;;;10.87;;
76863;SDS011;65834;52.364;9.754;2023-12-07T02:04:59;20.03;;;10.47;;
76863;SDS011;65834;52.364;9.754;2023-12-07T02:07:32;21.67;;;11.50;;
76863;SDS011;65834;52.364;9.754;2023-12-07T02:10:03;22.57;;;11.43;;
76863;SDS011;65834;52.364;9.754;2023-12-07T02:12:34;21.53;;;11.43;;
76863;SDS011;65834;52.364;9.754;2023-12-07T02:15:04;20.40;;;11.03;;
76863;SDS011;65834;52.364;9.754;2023-12-07T02:17:38;20.47;;;11.00;;
76863;SDS011;65834;52.364;9.754;2023-12-07T02:20:20;19.37;;;10.17;;
76863;SDS011;65834;52.364;9.754;2023-12-07T02:22:55;18.80;;;10.17;;
76863;SDS011;65834;52.364;9.754;2023-12-07T02:25:31;18.83;;;9.80;;
76863;SDS011;65834;52.364;9.754;2023-12-07T02:28:06;20.70;;;10.63;;
76863;SDS011;65834;52.364;9.754;2023-12-07T02:30:36;18.95;;;10.38;;
76863;SDS011;65834;52.364;9.754;2023-12-07T02:33:06;19.10;;;10.53;;
76863;SDS011;65834;52.364;9.754;2023-12-07T02:35:36;20.70;;;10.20;;
76863;SDS011;65834;52.364;9.754;2023-12-07T02:38:07;20.37;;;10.10;;
76863;SDS011;65834;52.364;9.754;2023-12-07T02:40:37;20.20;;;10.00;;
76863;SDS011;65834;52.364;9.754;2023-12-07T02:43:11;20.23;;;9.73;;
76863;SDS011;65834;52.364;9.754;2023-12-07T02:45:42;19.77;;;10.40;;
76863;SDS011;65834;52.364;9.754;2023-12-07T02:48:12;19.37;;;9.37;;
76863;SDS011;65834;52.364;9.754;2023-12-07T02:50:43;19.65;;;9.27;;
76863;SDS011;65834;52.364;9.754;2023-12-07T02:53:13;19.97;;;10.30;;
76863;SDS011;65834;52.364;9.754;2023-12-07T02:55:43;18.33;;;9.27;;
76863;SDS011;65834;52.364;9.754;2023-12-07T02:58:15;20.10;;;10.47;;
76863;SDS011;65834;52.364;9.754;2023-12-07T03:00:45;18.00;;;9.20;;
76863;SDS011;65834;52.364;9.754;2023-12-07T03:03:15;18.80;;;10.30;;
76863;SDS011;65834;52.364;9.754;2023-12-07T03:05:44;20.50;;;10.17;;
76863;SDS011;65834;52.364;9.754;2023-12-07T03:08:14;19.27;;;9.83;;
76863;SDS011;65834;52.364;9.754;2023-12-07T03:10:43;19.23;;;9.60;;
76863;SDS011;65834;52.364;9.754;2023-12-07T03:13:15;18.43;;;9.27;;
76863;SDS011;65834;52.364;9.754;2023-12-07T03:15:45;18.65;;;10.35;;
76863;SDS011;65834;52.364;9.754;2023-12-07T03:18:15;17.10;;;9.27;;
76863;SDS011;65834;52.364;9.754;2023-12-07T03:20:45;18.10;;;9.93;;
76863;SDS011;65834;52.364;9.754;2023-12-07T03:23:14;19.57;;;10.43;;
76863;SDS011;65834;52.364;9.754;2023-12-07T03:25:44;19.47;;;9.60;;
76863;SDS011;65834;52.364;9.754;2023-12-07T03:28:16;18.33;;;9.07;;
76863;SDS011;65834;52.364;9.754;2023-12-07T03:30:46;19.40;;;10.30;;
76863;SDS011;65834;52.364;9.754;2023-12-07T03:33:15;21.40;;;10.60;;
76863;SDS011;65834;52.364;9.754;2023-12-07T03:35:45;21.43;;;10.77;;
76863;SDS011;65834;52.364;9.754;2023-12-07T03:38:15;17.93;;;9.47;;
76863;SDS011;65834;52.364;9.754;2023-12-07T03:40:45;19.33;;;9.23;;
76863;SDS011;65834;52.364;9.754;2023-12-07T03:43:19;18.53;;;8.80;;
76863;SDS011;65834;52.364;9.754;2023-12-07T03:45:48;19.05;;;9.63;;
76863;SDS011;65834;52.364;9.754;2023-12-07T03:48:18;20.10;;;9.87;;
76863;SDS011;65834;52.364;9.754;2023-12-07T03:50:48;18.73;;;9.60;;
76863;SDS011;65834;52.364;9.754;2023-12-07T03:53:18;20.20;;;9.50;;
76863;SDS011;65834;52.364;9.754;2023-12-07T03:55:47;19.93;;;9.53;;
76863;SDS011;65834;52.364;9.754;2023-12-07T03:58:20;18.03;;;9.40;;
76863;SDS011;65834;52.364;9.754;2023-12-07T04:00:49;22.70;;;10.15;;
76863;SDS011;65834;52.364;9.754;2023-12-07T04:03:19;17.90;;;9.17;;
76863;SDS011;65834;52.364;9.754;2023-12-07T04:05:48;17.30;;;10.03;;
76863;SDS011;65834;52.364;9.754;2023-12-07T04:08:18;20.63;;;10.17;;
76863;SDS011;65834;52.364;9.754;2023-12-07T04:10:48;18.97;;;9.70;;
76863;SDS011;65834;52.364;9.754;2023-12-07T04:13:20;18.60;;;8.77;;
76863;SDS011;65834;52.364;9.754;2023-12-07T04:15:50;17.80;;;10.07;;
76863;SDS011;65834;52.364;9.754;2023-12-07T04:18:19;18.57;;;9.63;;
76863;SDS011;65834;52.364;9.754;2023-12-07T04:20:49;19.37;;;10.60;;
76863;SDS011;65834;52.364;9.754;2023-12-07T04:23:19;19.63;;;10.03;;
76863;SDS011;65834;52.364;9.754;2023-12-07T04:25:48;18.63;;;9.67;;
76863;SDS011;65834;52.364;9.754;2023-12-07T04:28:24;19.87;;;9.30;;
76863;SDS011;65834;52.364;9.754;2023-12-07T04:30:53;17.33;;;9.40;;
76863;SDS011;65834;52.364;9.754;2023-12-07T04:33:23;17.77;;;9.53;;
76863;SDS011;65834;52.364;9.754;2023-12-07T04:35:53;20.00;;;8.93;;
76863;SDS011;65834;52.364;9.754;2023-12-07T04:38:22;16.00;;;8.33;;
76863;SDS011;65834;52.364;9.754;2023-12-07T04:40:52;17.43;;;8.60;;
76863;SDS011;65834;52.364;9.754;2023-12-07T04:43:24;18.77;;;9.67;;
76863;SDS011;65834;52.364;9.754;2023-12-07T04:45:54;18.33;;;9.32;;
76863;SDS011;65834;52.364;9.754;2023-12-07T04:48:23;17.53;;;8.90;;
76863;SDS011;65834;52.364;9.754;2023-12-07T04:50:53;17.30;;;8.10;;
76863;SDS011;65834;52.364;9.754;2023-12-07T04:53:23;18.00;;;9.20;;
76863;SDS011;65834;52.364;9.754;2023-12-07T04:55:53;16.63;;;8.67;;
76863;SDS011;65834;52.364;9.754;2023-12-07T04:58:26;18.33;;;8.50;;
76863;SDS011;65834;52.364;9.754;2023-12-07T05:00:55;18.67;;;9.00;;
76863;SDS011;65834;52.364;9.754;2023-12-07T05:03:26;17.93;;;8.43;;
76863;SDS011;65834;52.364;9.754;2023-12-07T05:05:56;16.93;;;9.00;;
76863;SDS011;65834;52.364;9.754;2023-12-07T05:08:26;19.47;;;9.33;;
76863;SDS011;65834;52.364;9.754;2023-12-07T05:10:56;18.97;;;9.00;;
76863;SDS011;65834;52.364;9.754;2023-12-07T05:13:29;20.57;;;9.53;;
76863;SDS011;65834;52.364;9.754;2023-12-07T05:16:00;20.20;;;10.10;;
76863;SDS011;65834;52.364;9.754;2023-12-07T05:18:30;19.40;;;9.70;;
76863;SDS011;65834;52.364;9.754;2023-12-07T05:21:00;19.33;;;9.60;;
76863;SDS011;65834;52.364;9.754;2023-12-07T05:23:30;18.83;;;9.13;;
76863;SDS011;65834;52.364;9.754;2023-12-07T05:26:03;17.07;;;8.37;;
76863;SDS011;65834;52.364;9.754;2023-12-07T05:28:38;18.93;;;8.77;;
76863;SDS011;65834;52.364;9.754;2023-12-07T05:31:07;18.07;;;9.63;;
76863;SDS011;65834;52.364;9.754;2023-12-07T05:33:37;18.17;;;9.43;;
76863;SDS011;65834;52.364;9.754;2023-12-07T05:36:07;17.27;;;8.77;;
76863;SDS011;65834;52.364;9.754;2023-12-07T05:38:38;19.83;;;9.33;;
76863;SDS011;65834;52.364;9.754;2023-12-07T05:41:08;17.83;;;8.57;;
76863;SDS011;65834;52.364;9.754;2023-12-07T05:43:42;16.50;;;9.07;;
76863;SDS011;65834;52.364;9.754;2023-12-07T05:46:12;18.50;;;8.83;;
76863;SDS011;65834;52.364;9.754;2023-12-07T05:48:42;19.67;;;9.40;;
76863;SDS011;65834;52.364;9.754;2023-12-07T05:51:12;20.10;;;8.93;;
76863;SDS011;65834;52.364;9.754;2023-12-07T05:53:43;19.40;;;9.37;;
76863;SDS011;65834;52.364;9.754;2023-12-07T05:56:17;17.40;;;8.97;;
76863;SDS011;65834;52.364;9.754;2023-12-07T05:58:51;17.70;;;9.03;;
76863;SDS011;65834;52.364;9.754;2023-12-07T06:01:20;18.08;;;8.90;;
76863;SDS011;65834;52.364;9.754;2023-12-07T06:03:51;17.50;;;8.30;;
76863;SDS011;65834;52.364;9.754;2023-12-07T06:06:20;19.20;;;9.50;;
76863;SDS011;65834;52.364;9.754;2023-12-07T06:08:50;19.57;;;9.00;;
76863;SDS011;65834;52.364;9.754;2023-12-07T06:11:20;20.40;;;9.63;;
76863;SDS011;65834;52.364;9.754;2023-12-07T06:13:52;17.23;;;8.50;;
76863;SDS011;65834;52.364;9.754;2023-12-07T06:16:22;19.20;;;8.50;;
76863;SDS011;65834;52.364;9.754;2023-12-07T06:18:53;18.33;;;9.33;;
76863;SDS011;65834;52.364;9.754;2023-12-07T06:21:23;19.00;;;8.67;;
76863;SDS011;65834;52.364;9.754;2023-12-07T06:23:56;17.23;;;8.35;;
76863;SDS011;65834;52.364;9.754;2023-12-07T06:26:26;18.27;;;9.10;;
76863;SDS011;65834;52.364;9.754;2023-12-07T06:28:58;17.87;;;8.90;;
76863;SDS011;65834;52.364;9.754;2023-12-07T06:31:28;19.50;;;9.30;;
76863;SDS011;65834;52.364;9.754;2023-12-07T06:33:58;18.43;;;8.70;;
76863;SDS011;65834;52.364;9.754;2023-12-07T06:36:38;18.23;;;8.73;;
76863;SDS011;65834;52.364;9.754;2023-12-07T06:39:08;20.60;;;8.67;;
76863;SDS011;65834;52.364;9.754;2023-12-07T06:41:37;17.50;;;8.43;;
76863;SDS011;65834;52.364;9.754;2023-12-07T06:44:09;16.93;;;8.67;;
76863;SDS011;65834;52.364;9.754;2023-12-07T06:46:39;17.58;;;9.07;;
76863;SDS011;65834;52.364;9.754;2023-12-07T06:49:09;17.53;;;8.57;;
76863;SDS011;65834;52.364;9.754;2023-12-07T06:51:39;17.80;;;8.23;;
76863;SDS011;65834;52.364;9.754;2023-12-07T06:54:09;17.80;;;9.07;;
76863;SDS011;65834;52.364;9.754;2023-12-07T06:56:40;16.63;;;8.53;;
76863;SDS011;65834;52.364;9.754;2023-12-07T06:59:12;18.40;;;8.60;;
76863;SDS011;65834;52.364;9.754;2023-12-07T07:01:42;17.08;;;8.00;;
76863;SDS011;65834;52.364;9.754;2023-12-07T07:04:12;18.23;;;8.90;;
76863;SDS011;65834;52.364;9.754;2023-12-07T07:06:42;18.90;;;9.13;;
76863;SDS011;65834;52.364;9.754;2023-12-07T07:09:12;18.53;;;9.33;;
76863;SDS011;65834;52.364;9.754;2023-12-07T07:11:43;17.13;;;8.47;;
76863;SDS011;65834;52.364;9.754;2023-12-07T07:14:19;17.37;;;8.40;;
76863;SDS011;65834;52.364;9.754;2023-12-07T07:16:48;16.85;;;8.35;;
76863;SDS011;65834;52.364;9.754;2023-12-07T07:19:18;18.13;;;8.37;;
76863;SDS011;65834;52.364;9.754;2023-12-07T07:21:48;17.70;;;8.70;;
76863;SDS011;65834;52.364;9.754;2023-12-07T07:24:18;17.77;;;8.27;;
76863;SDS011;65834;52.364;9.754;2023-12-07T07:26:47;18.97;;;8.60;;
76863;SDS011;65834;52.364;9.754;2023-12-07T07:29:19;17.07;;;8.20;;
76863;SDS011;65834;52.364;9.754;2023-12-07T07:31:51;17.43;;;7.87;;
76863;SDS011;65834;52.364;9.754;2023-12-07T07:34:22;15.93;;;8.13;;
76863;SDS011;65834;52.364;9.754;2023-12-07T07:36:52;19.47;;;8.83;;
76863;SDS011;65834;52.364;9.754;2023-12-07T07:39:22;18.47;;;9.13;;
76863;SDS011;65834;52.364;9.754;2023-12-07T07:41:51;20.77;;;9.70;;
76863;SDS011;65834;52.364;9.754;2023-12-07T07:44:24;17.90;;;8.67;;
76863;SDS011;65834;52.364;9.754;2023-12-07T07:46:53;18.65;;;9.70;;
76863;SDS011;65834;52.364;9.754;2023-12-07T07:49:23;18.33;;;8.93;;
76863;SDS011;65834;52.364;9.754;2023-12-07T07:51:53;20.33;;;9.23;;
76863;SDS011;65834;52.364;9.754;2023-12-07T07:54:23;18.27;;;8.77;;
76863;SDS011;65834;52.364;9.754;2023-12-07T07:56:53;17.63;;;8.17;;
76863;SDS011;65834;52.364;9.754;2023-12-07T07:59:25;19.83;;;8.80;;
76863;SDS011;65834;52.364;9.754;2023-12-07T08:01:55;19.08;;;9.07;;
76863;SDS011;65834;52.364;9.754;2023-12-07T08:04:24;18.10;;;9.63;;
76863;SDS011;65834;52.364;9.754;2023-12-07T08:06:54;19.03;;;8.93;;
76863;SDS011;65834;52.364;9.754;2023-12-07T08:09:24;19.23;;;8.60;;
76863;SDS011;65834;52.364;9.754;2023-12-07T08:11:53;21.00;;;9.60;;
76863;SDS011;65834;52.364;9.754;2023-12-07T08:14:26;20.77;;;9.37;;
76863;SDS011;65834;52.364;9.754;2023-12-07T08:16:55;18.63;;;9.57;;
76863;SDS011;65834;52.364;9.754;2023-12-07T08:19:29;17.37;;;8.57;;
76863;SDS011;65834;52.364;9.754;2023-12-07T08:21:59;19.07;;;8.93;;
76863;SDS011;65834;52.364;9.754;2023-12-07T08:24:29;17.33;;;8.93;;
76863;SDS011;65834;52.364;9.754;2023-12-07T08:26:58;20.13;;;9.90;;
76863;SDS011;65834;52.364;9.754;2023-12-07T08:29:32;18.47;;;9.00;;
76863;SDS011;65834;52.364;9.754;2023-12-07T08:32:03;19.20;;;9.03;;
76863;SDS011;65834;52.364;9.754;2023-12-07T08:34:33;17.07;;;9.07;;
76863;SDS011;65834;52.364;9.754;2023-12-07T08:37:04;19.57;;;8.93;;
76863;SDS011;65834;52.364;9.754;2023-12-07T08:39:34;18.13;;;8.93;;
76863;SDS011;65834;52.364;9.754;2023-12-07T08:42:04;20.70;;;9.90;;
76863;SDS011;65834;52.364;9.754;2023-12-07T08:44:37;19.60;;;9.83;;
76863;SDS011;65834;52.364;9.754;2023-12-07T08:47:07;19.60;;;10.15;;
76863;SDS011;65834;52.364;9.754;2023-12-07T08:49:37;17.87;;;8.77;;
76863;SDS011;65834;52.364;9.754;2023-12-07T08:52:07;17.53;;;9.03;;
76863;SDS011;65834;52.364;9.754;2023-12-07T08:54:56;18.50;;;9.03;;
76863;SDS011;65834;52.364;9.754;2023-12-07T08:57:29;17.97;;;8.63;;
76863;SDS011;65834;52.364;9.754;2023-12-07T09:00:01;17.77;;;9.17;;
76863;SDS011;65834;52.364;9.754;2023-12-07T09:02:31;19.83;;;9.88;;
76863;SDS011;65834;52.364;9.754;2023-12-07T09:05:13;18.37;;;9.57;;
76863;SDS011;65834;52.364;9.754;2023-12-07T09:07:43;21.40;;;9.60;;
76863;SDS011;65834;52.364;9.754;2023-12-07T09:10:13;18.33;;;9.90;;
76863;SDS011;65834;52.364;9.754;2023-12-07T09:12:43;20.40;;;9.83;;
76863;SDS011;65834;52.364;9.754;2023-12-07T09:15:16;18.30;;;9.00;;
76863;SDS011;65834;52.364;9.754;2023-12-07T09:17:45;19.08;;;9.00;;
76863;SDS011;65834;52.364;9.754;2023-12-07T09:20:15;20.87;;;10.20;;
76863;SDS011;65834;52.364;9.754;2023-12-07T09:22:45;20.47;;;9.97;;
76863;SDS011;65834;52.364;9.754;2023-12-07T09:25:16;20.23;;;10.57;;
76863;SDS011;65834;52.364;9.754;2023-12-07T09:27:52;20.73;;;10.40;;
76863;SDS011;65834;52.364;9.754;2023-12-07T09:30:26;22.37;;;10.27;;
76863;SDS011;65834;52.364;9.754;2023-12-07T09:32:55;21.30;;;10.60;;
76863;SDS011;65834;52.364;9.754;2023-12-07T09:35:25;19.67;;;11.50;;
76863;SDS011;65834;52.364;9.754;2023-12-07T09:37:55;22.40;;;10.17;;
76863;SDS011;65834;52.364;9.754;2023-12-07T09:40:24;22.50;;;10.63;;
76863;SDS011;65834;52.364;9.754;2023-12-07T09:42:55;24.60;;;11.50;;
76863;SDS011;65834;52.364;9.754;2023-12-07T09:45:27;22.10;;;10.67;;
76863;SDS011;65834;52.364;9.754;2023-12-07T09:47:59;23.50;;;11.53;;
76863;SDS011;65834;52.364;9.754;2023-12-07T09:50:29;21.30;;;11.03;;
76863;SDS011;65834;52.364;9.754;2023-12-07T09:52:59;21.60;;;11.30;;
76863;SDS011;65834;52.364;9.754;2023-12-07T09:55:34;21.43;;;10.23;;
76863;SDS011;65834;52.364;9.754;2023-12-07T09:58:05;23.07;;;10.93;;
76863;SDS011;65834;52.364;9.754;2023-12-07T10:00:38;22.57;;;10.60;;
76863;SDS011;65834;52.364;9.754;2023-12-07T10:03:09;23.63;;;12.13;;
76863;SDS011;65834;52.364;9.754;2023-12-07T10:05:53;20.92;;;11.15;;
76863;SDS011;65834;52.364;9.754;2023-12-07T10:08:25;22.00;;;11.20;;
76863;SDS011;65834;52.364;9.754;2023-12-07T10:11:06;24.60;;;10.73;;
76863;SDS011;65834;52.364;9.754;2023-12-07T10:13:38;22.20;;;10.85;;
76863;SDS011;65834;52.364;9.754;2023-12-07T10:16:12;20.43;;;11.17;;
76863;SDS011;65834;52.364;9.754;2023-12-07T10:18:43;22.97;;;10.83;;
76863;SDS011;65834;52.364;9.754;2023-12-07T10:21:13;23.57;;;11.13;;
76863;SDS011;65834;52.364;9.754;2023-12-07T10:23:43;23.33;;;10.73;;
76863;SDS011;65834;52.364;9.754;2023-12-07T10:26:16;22.02;;;10.55;;
76863;SDS011;65834;52.364;9.754;2023-12-07T10:31:24;21.73;;;9.40;;
76863;SDS011;65834;52.364;9.754;2023-12-07T10:33:58;21.40;;;10.60;;
76863;SDS011;65834;52.364;9.754;2023-12-07T10:36:38;18.77;;;9.90;;
76863;SDS011;65834;52.364;9.754;2023-12-07T10:39:10;21.80;;;11.40;;
76863;SDS011;65834;52.364;9.754;2023-12-07T10:41:46;22.23;;;11.13;;
76863;SDS011;65834;52.364;9.754;2023-12-07T10:44:18;21.08;;;10.35;;
76863;SDS011;65834;52.364;9.754;2023-12-07T10:46:53;23.02;;;10.60;;
76863;SDS011;65834;52.364;9.754;2023-12-07T10:49:25;23.60;;;10.83;;
76863;SDS011;65834;52.364;9.754;2023-12-07T10:52:03;22.90;;;10.63;;
76863;SDS011;65834;52.364;9.754;2023-12-07T10:54:37;21.90;;;10.53;;
76863;SDS011;65834;52.364;9.754;2023-12-07T10:57:14;19.30;;;10.00;;
76863;SDS011;65834;52.364;9.754;2023-12-07T10:59:44;23.73;;;11.50;;
76863;SDS011;65834;52.364;9.754;2023-12-07T11:04:50;18.80;;;9.90;;
76863;SDS011;65834;52.364;9.754;2023-12-07T11:07:21;18.57;;;9.53;;
76863;SDS011;65834;52.364;9.754;2023-12-07T11:09:57;20.58;;;9.80;;
76863;SDS011;65834;52.364;9.754;2023-12-07T11:12:31;21.13;;;10.33;;
76863;SDS011;65834;52.364;9.754;2023-12-07T11:15:04;20.73;;;9.57;;
76863;SDS011;65834;52.364;9.754;2023-12-07T11:17:49;23.70;;;10.83;;
76863;SDS011;65834;52.364;9.754;2023-12-07T11:20:21;21.07;;;10.30;;
76863;SDS011;65834;52.364;9.754;2023-12-07T11:22:51;19.93;;;10.77;;
76863;SDS011;65834;52.364;9.754;2023-12-07T11:25:21;20.97;;;11.17;;
76863;SDS011;65834;52.364;9.754;2023-12-07T11:27:59;19.67;;;10.27;;
76863;SDS011;65834;52.364;9.754;2023-12-07T11:30:30;20.03;;;9.30;;
76863;SDS011;65834;52.364;9.754;2023-12-07T11:33:05;19.63;;;9.40;;
76863;SDS011;65834;52.364;9.754;2023-12-07T11:38:32;22.20;;;10.37;;
76863;SDS011;65834;52.364;9.754;2023-12-07T11:41:02;23.37;;;11.27;;
76863;SDS011;65834;52.364;9.754;2023-12-07T11:43:36;23.17;;;10.90;;
76863;SDS011;65834;52.364;9.754;2023-12-07T11:46:10;19.27;;;9.80;;
76863;SDS011;65834;52.364;9.754;2023-12-07T11:48:48;21.20;;;10.93;;
76863;SDS011;65834;52.364;9.754;2023-12-07T11:51:18;19.77;;;9.97;;
76863;SDS011;65834;52.364;9.754;2023-12-07T11:53:48;20.13;;;10.00;;
76863;SDS011;65834;52.364;9.754;2023-12-07T11:56:17;21.83;;;10.37;;
76863;SDS011;65834;52.364;9.754;2023-12-07T11:58:48;21.80;;;10.43;;
76863;SDS011;65834;52.364;9.754;2023-12-07T12:01:19;21.67;;;10.93;;
76863;SDS011;65834;52.364;9.754;2023-12-07T12:03:51;20.40;;;10.40;;
76863;SDS011;65834;52.364;9.754;2023-12-07T12:06:21;22.67;;;10.07;;
76863;SDS011;65834;52.364;9.754;2023-12-07T12:11:24;21.23;;;10.50;;
76863;SDS011;65834;52.364;9.754;2023-12-07T12:13:54;22.70;;;11.63;;
76863;SDS011;65834;52.364;9.754;2023-12-07T12:16:24;22.03;;;10.53;;
76863;SDS011;65834;52.364;9.754;2023-12-07T12:18:56;21.83;;;10.57;;
76863;SDS011;65834;52.364;9.754;2023-12-07T12:21:26;19.20;;;9.45;;
76863;SDS011;65834;52.364;9.754;2023-12-07T12:23:56;24.47;;;11.77;;
76863;SDS011;65834;52.364;9.754;2023-12-07T12:26:27;24.30;;;11.67;;
76863;SDS011;65834;52.364;9.754;2023-12-07T12:28:56;23.40;;;10.67;;
76863;SDS011;65834;52.364;9.754;2023-12-07T12:31:26;23.33;;;12.07;;
76863;SDS011;65834;52.364;9.754;2023-12-07T12:34:00;22.57;;;11.57;;
76863;SDS011;65834;52.364;9.754;2023-12-07T12:36:35;21.87;;;11.37;;
76863;SDS011;65834;52.364;9.754;2023-12-07T12:39:05;23.37;;;11.30;;
76863;SDS011;65834;52.364;9.754;2023-12-07T12:41:53;20.13;;;10.60;;
76863;SDS011;65834;52.364;9.754;2023-12-07T12:44:23;23.73;;;12.33;;
76863;SDS011;65834;52.364;9.754;2023-12-07T12:47:01;22.60;;;11.10;;
76863;SDS011;65834;52.364;9.754;2023-12-07T12:49:37;23.57;;;11.27;;
76863;SDS011;65834;52.364;9.754;2023-12-07T12:52:09;24.97;;;11.93;;
76863;SDS011;65834;52.364;9.754;2023-12-07T12:54:39;24.60;;;11.32;;
76863;SDS011;65834;52.364;9.754;2023-12-07T12:57:12;24.73;;;12.03;;
76863;SDS011;65834;52.364;9.754;2023-12-07T12:59:42;24.60;;;11.70;;
76863;SDS011;65834;52.364;9.754;2023-12-07T13:02:14;24.58;;;12.50;;
76863;SDS011;65834;52.364;9.754;2023-12-07T13:04:47;24.40;;;12.20;;
76863;SDS011;65834;52.364;9.754;2023-12-07T13:07:18;23.20;;;11.80;;
76863;SDS011;65834;52.364;9.754;2023-12-07T13:09:51;24.63;;;12.30;;
76863;SDS011;65834;52.364;9.754;2023-12-07T13:12:21;21.43;;;10.93;;
76863;SDS011;65834;52.364;9.754;2023-12-07T13:14:54;26.10;;;12.17;;
76863;SDS011;65834;52.364;9.754;2023-12-07T13:17:25;23.87;;;11.90;;
76863;SDS011;65834;52.364;9.754;2023-12-07T13:19:58;23.53;;;12.50;;
76863;SDS011;65834;52.364;9.754;2023-12-07T13:22:27;24.02;;;12.52;;
76863;SDS011;65834;52.364;9.754;2023-12-07T13:24:57;24.07;;;11.93;;
76863;SDS011;65834;52.364;9.754;2023-12-07T13:27:26;25.47;;;11.93;;
76863;SDS011;65834;52.364;9.754;2023-12-07T13:29:56;25.40;;;12.43;;
76863;SDS011;65834;52.364;9.754;2023-12-07T13:32:27;25.63;;;11.60;;
76863;SDS011;65834;52.364;9.754;2023-12-07T13:34:59;24.90;;;12.37;;
76863;SDS011;65834;52.364;9.754;2023-12-07T13:37:29;23.73;;;11.43;;
76863;SDS011;65834;52.364;9.754;2023-12-07T13:39:59;24.90;;;12.27;;
76863;SDS011;65834;52.364;9.754;2023-12-07T13:42:30;24.13;;;12.17;;
76863;SDS011;65834;52.364;9.754;2023-12-07T13:45:00;24.40;;;12.03;;
76863;SDS011;65834;52.364;9.754;2023-12-07T13:47:29;25.60;;;11.83;;
76863;SDS011;65834;52.364;9.754;2023-12-07T13:50:02;23.43;;;11.73;;
76863;SDS011;65834;52.364;9.754;2023-12-07T13:52:33;24.33;;;11.83;;
76863;SDS011;65834;52.364;9.754;2023-12-07T13:55:03;23.00;;;11.10;;
76863;SDS011;65834;52.364;9.754;2023-12-07T13:57:34;22.80;;;11.83;;
76863;SDS011;65834;52.364;9.754;2023-12-07T14:00:04;24.40;;;12.17;;
76863;SDS011;65834;52.364;9.754;2023-12-07T14:02:39;22.33;;;11.07;;
76863;SDS011;65834;52.364;9.754;2023-12-07T14:05:12;23.13;;;12.97;;
76863;SDS011;65834;52.364;9.754;2023-12-07T14:07:46;22.87;;;11.63;;
76863;SDS011;65834;52.364;9.754;2023-12-07T14:10:16;23.07;;;11.17;;
76863;SDS011;65834;52.364;9.754;2023-12-07T14:12:46;24.83;;;12.33;;
76863;SDS011;65834;52.364;9.754;2023-12-07T14:15:15;23.30;;;12.10;;
76863;SDS011;65834;52.364;9.754;2023-12-07T14:18:00;22.27;;;11.30;;
76863;SDS011;65834;52.364;9.754;2023-12-07T14:20:32;23.97;;;11.77;;
76863;SDS011;65834;52.364;9.754;2023-12-07T14:23:22;24.85;;;11.95;;
76863;SDS011;65834;52.364;9.754;2023-12-07T14:25:53;21.53;;;11.17;;
76863;SDS011;65834;52.364;9.754;2023-12-07T14:28:29;24.80;;;11.10;;
76863;SDS011;65834;52.364;9.754;2023-12-07T14:31:01;22.47;;;11.40;;
76863;SDS011;65834;52.364;9.754;2023-12-07T14:33:30;22.87;;;11.07;;
76863;SDS011;65834;52.364;9.754;2023-12-07T14:36:00;24.23;;;11.80;;
76863;SDS011;65834;52.364;9.754;2023-12-07T14:38:30;25.27;;;11.40;;
76863;SDS011;65834;52.364;9.754;2023-12-07T14:40:58;22.10;;;10.77;;
76863;SDS011;65834;52.364;9.754;2023-12-07T14:43:29;24.90;;;11.73;;
76863;SDS011;65834;52.364;9.754;2023-12-07T14:45:58;23.47;;;11.30;;
76863;SDS011;65834;52.364;9.754;2023-12-07T14:48:28;21.93;;;11.30;;
76863;SDS011;65834;52.364;9.754;2023-12-07T14:51:01;23.93;;;10.63;;
76863;SDS011;65834;52.364;9.754;2023-12-07T14:53:31;24.10;;;11.05;;
76863;SDS011;65834;52.364;9.754;2023-12-07T14:56:01;20.43;;;10.37;;
76863;SDS011;65834;52.364;9.754;2023-12-07T14:58:30;24.57;;;11.43;;
76863;SDS011;65834;52.364;9.754;2023-12-07T15:01:01;24.23;;;10.37;;
76863;SDS011;65834;52.364;9.754;2023-12-07T15:03:31;22.93;;;10.73;;
76863;SDS011;65834;52.364;9.754;2023-12-07T15:06:04;23.37;;;10.80;;